Time;durP1;ratioP1;P1;durP2;ratioP2;P2;SDS_P1;SDS_P2;PMS_P1;PMS_P2;Temp;Humidity;BMP_temperature;BMP_pressure;BME280_temperature;BME280_humidity;BME280_pressure;Samples;Min_cycle;Max_cycle;Signal;HPM_P1;HPM_P2
2021/08/08 00:00:00;;;;;;;6.88;4.25;;;;;;;20.87;65.91;98579.19;5112036;28;20061;-51
2021/08/08 00:02:26;;;;;;;5.72;3.80;;;;;;;20.89;66.08;98577.22;5078962;28;20048;-51
2021/08/08 00:04:53;;;;;;;5.13;3.50;;;;;;;20.92;66.20;98576.13;5079257;28;20063;-51
2021/08/08 00:07:18;;;;;;;7.82;4.18;;;;;;;20.92;65.96;98566.31;5079192;28;20053;-51
2021/08/08 00:09:45;;;;;;;8.20;4.18;;;;;;;20.95;65.88;98563.38;5077994;28;20044;-51
2021/08/08 00:12:11;;;;;;;5.85;4.00;;;;;;;20.95;66.25;98557.22;5078401;28;20048;-51
2021/08/08 00:14:37;;;;;;;4.85;3.40;;;;;;;20.94;66.03;98551.06;5078821;28;20048;-51
2021/08/08 00:17:04;;;;;;;6.10;4.25;;;;;;;20.96;66.46;98546.47;5061502;28;20366;-51
2021/08/08 00:19:29;;;;;;;5.22;3.80;;;;;;;20.96;66.35;98543.81;5094661;28;20059;-51
2021/08/08 00:21:55;;;;;;;10.13;3.90;;;;;;;20.97;66.46;98529.50;5078954;28;20061;-51
2021/08/08 00:24:21;;;;;;;5.80;3.38;;;;;;;20.98;66.50;98522.38;5078620;28;20036;-51
2021/08/08 00:26:47;;;;;;;6.22;3.83;;;;;;;21.01;66.74;98524.75;5078815;28;20045;-51
2021/08/08 00:29:12;;;;;;;7.25;3.55;;;;;;;21.01;66.77;98525.59;5078554;28;20048;-51
2021/08/08 00:31:38;;;;;;;5.97;3.55;;;;;;;21.06;66.54;98522.53;5077810;28;20366;-51
2021/08/08 00:34:04;;;;;;;6.40;3.75;;;;;;;21.13;66.33;98529.00;5078694;28;20151;-50
2021/08/08 00:36:33;;;;;;;8.32;3.35;;;;;;;21.23;66.18;98523.69;5061189;28;20340;-50
2021/08/08 00:39:00;;;;;;;7.65;3.38;;;;;;;21.26;66.54;98533.25;5094247;28;20048;-51
2021/08/08 00:41:28;;;;;;;5.30;3.05;;;;;;;21.24;67.73;98539.53;5077708;28;20048;-51
2021/08/08 00:43:54;;;;;;;10.43;3.80;;;;;;;21.22;69.07;98568.13;5078179;28;20048;-51
2021/08/08 00:46:20;;;;;;;3.72;2.58;;;;;;;21.16;70.85;98571.31;5094123;28;20060;-51
2021/08/08 00:48:46;;;;;;;4.68;2.65;;;;;;;21.10;73.36;98582.50;5094749;28;20067;-50
2021/08/08 00:51:17;;;;;;;7.13;3.10;;;;;;;20.96;76.18;98582.84;5094372;28;20048;-50
2021/08/08 00:53:46;;;;;;;5.72;2.80;;;;;;;20.86;77.44;98588.13;5078191;28;20040;-51
2021/08/08 00:56:12;;;;;;;5.00;2.50;;;;;;;20.80;78.20;98586.03;5093918;28;20064;-51
2021/08/08 00:58:38;;;;;;;4.30;2.97;;;;;;;20.79;78.56;98584.31;5110874;28;20041;-51
2021/08/08 01:01:05;;;;;;;5.57;3.28;;;;;;;20.72;79.91;98599.97;5093959;28;20051;-51
2021/08/08 01:03:31;;;;;;;7.28;2.85;;;;;;;20.65;80.66;98596.16;5043923;28;20099;-50
2021/08/08 01:06:11;;;;;;;4.50;2.80;;;;;;;20.63;81.23;98602.56;5094142;28;20069;-51
2021/08/08 01:08:44;;;;;;;4.10;2.80;;;;;;;20.59;81.29;98599.34;5078106;28;20059;-51
2021/08/08 01:11:10;;;;;;;4.78;3.03;;;;;;;20.51;81.48;98602.66;5094063;28;20342;-50
2021/08/08 01:13:37;;;;;;;5.80;3.50;;;;;;;20.50;81.66;98613.38;5044041;28;20076;-51
2021/08/08 01:16:03;;;;;;;4.47;3.10;;;;;;;20.49;81.55;98603.72;5110518;28;20097;-51
2021/08/08 01:18:29;;;;;;;4.95;3.10;;;;;;;20.47;81.89;98597.69;5060073;28;20461;-51
2021/08/08 01:20:57;;;;;;;4.40;3.45;;;;;;;20.44;81.81;98606.78;5076874;28;20123;-51
2021/08/08 01:23:24;;;;;;;6.30;3.30;;;;;;;20.40;82.19;98609.81;5044287;28;20063;-51
2021/08/08 01:25:51;;;;;;;5.45;3.33;;;;;;;20.39;82.20;98614.28;5076990;28;20070;-51
2021/08/08 01:28:17;;;;;;;6.32;3.00;;;;;;;20.38;82.08;98617.94;5076763;28;20442;-50
2021/08/08 01:30:44;;;;;;;4.10;2.70;;;;;;;20.38;82.36;98611.78;5060375;28;20045;-51
2021/08/08 01:33:10;;;;;;;3.75;3.05;;;;;;;20.36;82.45;98605.75;5076685;28;20056;-51
2021/08/08 01:35:45;;;;;;;7.38;3.17;;;;;;;20.35;82.49;98609.38;5093763;28;20051;-50
2021/08/08 01:38:14;;;;;;;6.50;3.42;;;;;;;20.30;82.94;98631.84;5076621;28;20056;-51
2021/08/08 01:40:57;;;;;;;5.32;3.13;;;;;;;20.27;82.42;98610.00;5077020;28;20103;-51
2021/08/08 01:43:27;;;;;;;4.60;3.20;;;;;;;20.24;82.28;98613.75;5060714;28;20048;-51
2021/08/08 01:45:55;;;;;;;4.45;3.35;;;;;;;20.30;82.00;98629.19;5076460;28;20378;-51
2021/08/08 01:48:21;;;;;;;4.13;3.35;;;;;;;20.30;81.96;98642.50;5059813;28;20140;-51
2021/08/08 01:50:48;;;;;;;6.03;2.90;;;;;;;20.33;81.38;98644.06;5110080;28;20040;-51
2021/08/08 01:53:14;;;;;;;5.25;3.20;;;;;;;20.26;81.53;98641.06;5075990;28;20060;-51
2021/08/08 01:55:40;;;;;;;3.47;2.90;;;;;;;20.25;81.37;98634.06;5076241;28;20194;-51
2021/08/08 01:58:06;;;;;;;9.15;3.05;;;;;;;20.24;81.22;98640.34;5042966;28;20040;-51
2021/08/08 02:00:33;;;;;;;4.05;3.33;;;;;;;20.23;80.62;98630.69;5075859;28;20355;-51
2021/08/08 02:03:09;;;;;;;5.90;3.35;;;;;;;20.23;80.39;98617.41;5092708;28;20476;-51
2021/08/08 02:05:46;;;;;;;5.00;3.00;;;;;;;20.19;80.40;98634.59;5077803;28;20090;-51
2021/08/08 02:08:15;;;;;;;7.38;3.25;;;;;;;20.19;80.11;98631.09;5076020;28;20053;-51
2021/08/08 02:10:58;;;;;;;6.18;3.20;;;;;;;20.10;80.30;98627.38;5076020;28;20057;-51
2021/08/08 02:13:37;;;;;;;5.18;2.83;;;;;;;20.10;80.08;98631.84;5075972;28;20340;-51
2021/08/08 02:16:05;;;;;;;5.97;2.90;;;;;;;20.11;79.87;98630.84;5091609;28;20131;-50
2021/08/08 02:18:30;;;;;;;4.82;3.40;;;;;;;20.09;79.80;98644.28;5076627;28;20053;-51
2021/08/08 02:20:56;;;;;;;6.93;3.70;;;;;;;20.07;79.71;98644.41;5092276;28;20469;-51
2021/08/08 02:23:23;;;;;;;5.30;2.90;;;;;;;20.02;79.99;98645.78;5092390;28;20501;-51
2021/08/08 02:25:51;;;;;;;6.18;3.00;;;;;;;19.99;79.98;98654.84;5075427;28;20044;-51
2021/08/08 02:28:25;;;;;;;5.18;3.70;;;;;;;19.96;79.65;98662.22;5075709;28;20071;-51
2021/08/08 02:30:51;;;;;;;5.05;3.47;;;;;;;19.91;79.47;98670.53;5076576;28;20049;-53
2021/08/08 02:33:21;;;;;;;4.22;2.63;;;;;;;19.86;79.82;98683.38;5092538;28;20126;-54
2021/08/08 02:35:47;;;;;;;7.35;3.33;;;;;;;19.82;80.21;98705.81;5092326;28;20067;-51
2021/08/08 02:38:14;;;;;;;4.05;2.58;;;;;;;19.77;80.22;98710.69;5092177;28;20036;-51
2021/08/08 02:40:39;;;;;;;3.95;2.80;;;;;;;19.73;80.37;98723.38;5075483;28;20053;-50
2021/08/08 02:43:10;;;;;;;5.22;2.80;;;;;;;19.71;80.12;98732.41;5092349;28;20056;-51
2021/08/08 02:45:36;;;;;;;4.63;2.60;;;;;;;19.67;80.11;98734.47;5058595;28;20084;-51
2021/08/08 02:48:05;;;;;;;4.78;3.30;;;;;;;19.59;80.40;98736.84;5075995;28;20083;-51
2021/08/08 02:50:31;;;;;;;5.20;3.15;;;;;;;19.48;80.59;98731.53;5076331;28;20431;-51
2021/08/08 02:52:57;;;;;;;4.50;2.90;;;;;;;19.38;80.97;98739.38;5091977;28;20052;-51
2021/08/08 02:55:24;;;;;;;5.35;3.17;;;;;;;19.34;81.20;98760.03;5076230;28;20049;-51
2021/08/08 02:57:55;;;;;;;5.78;2.80;;;;;;;19.27;81.73;98768.56;5091879;28;20053;-51
2021/08/08 03:00:21;;;;;;;4.90;2.70;;;;;;;19.20;81.51;98784.09;5091592;28;20056;-51
2021/08/08 03:02:47;;;;;;;3.88;2.97;;;;;;;19.13;81.24;98796.16;5075371;28;20049;-51
2021/08/08 03:05:13;;;;;;;4.35;2.97;;;;;;;19.06;81.83;98797.59;5091796;28;20044;-51
2021/08/08 03:07:39;;;;;;;5.63;2.65;;;;;;;18.99;82.00;98802.53;5075875;28;20041;-51
2021/08/08 03:10:06;;;;;;;3.47;2.70;;;;;;;18.96;82.12;98828.44;5074987;28;20048;-51
2021/08/08 03:12:32;;;;;;;5.53;3.17;;;;;;;18.89;82.60;98836.00;5108475;28;20044;-51
2021/08/08 03:14:58;;;;;;;3.90;2.58;;;;;;;18.81;82.94;98841.88;5075172;28;20060;-51
2021/08/08 03:17:24;;;;;;;3.08;2.78;;;;;;;18.78;82.78;98841.25;5091931;28;20044;-51
2021/08/08 03:19:50;;;;;;;5.40;2.30;;;;;;;18.74;82.88;98851.25;5075893;28;20044;-50
2021/08/08 03:22:16;;;;;;;2.55;2.35;;;;;;;18.73;82.86;98862.00;5091662;28;20147;-50
2021/08/08 03:24:42;;;;;;;3.78;2.05;;;;;;;18.70;83.02;98865.66;5091900;28;20052;-51
2021/08/08 03:27:09;;;;;;;5.40;2.17;;;;;;;18.65;83.50;98873.09;5094625;28;20048;-50
2021/08/08 03:29:37;;;;;;;3.03;1.80;;;;;;;18.65;83.37;98875.75;5095696;28;20048;-50
2021/08/08 03:32:04;;;;;;;4.75;2.13;;;;;;;18.66;83.61;98885.44;5078711;28;20052;-51
2021/08/08 03:34:30;;;;;;;1.83;1.70;;;;;;;18.66;83.36;98890.72;5112491;28;20055;-51
2021/08/08 03:36:56;;;;;;;2.83;2.20;;;;;;;18.66;83.81;98901.34;5062328;28;20136;-51
2021/08/08 03:39:25;;;;;;;3.97;2.13;;;;;;;18.62;83.77;98902.50;5078564;28;20457;-51
2021/08/08 03:41:53;;;;;;;2.65;1.98;;;;;;;18.63;83.81;98914.81;5095754;28;20118;-51
2021/08/08 03:44:19;;;;;;;4.47;2.20;;;;;;;18.59;83.97;98900.06;5078788;28;20052;-51
2021/08/08 03:46:45;;;;;;;2.50;1.90;;;;;;;18.57;84.02;98899.34;5095712;28;20051;-51
2021/08/08 03:49:12;;;;;;;3.85;2.40;;;;;;;18.54;84.17;98902.22;5078368;28;20447;-51
2021/08/08 03:51:38;;;;;;;3.35;2.03;;;;;;;18.59;83.82;98913.31;5079496;28;20075;-51
2021/08/08 03:54:04;;;;;;;3.28;2.47;;;;;;;18.60;83.75;98907.09;5079956;28;20427;-51
2021/08/08 03:56:30;;;;;;;4.55;2.13;;;;;;;18.59;83.53;98897.41;5112163;28;20063;-50
2021/08/08 03:58:56;;;;;;;3.05;2.17;;;;;;;18.60;83.28;98883.22;5095113;28;20049;-51
2021/08/08 04:01:21;;;;;;;3.03;2.13;;;;;;;18.62;83.50;98907.78;5112111;28;20468;-51
2021/08/08 04:03:47;;;;;;;2.60;1.73;;;;;;;18.63;83.13;98906.84;5078389;28;20105;-51
2021/08/08 04:06:14;;;;;;;5.30;2.17;;;;;;;18.63;83.60;98931.56;5095228;28;20123;-51
2021/08/08 04:08:39;;;;;;;3.33;2.10;;;;;;;18.65;83.45;98940.28;5095178;28;20052;-51
2021/08/08 04:11:13;;;;;;;2.53;1.58;;;;;;;18.66;82.85;98941.97;5095470;28;20048;-51
2021/08/08 04:13:40;;;;;;;2.53;2.13;;;;;;;18.65;82.63;98937.63;5095128;28;20052;-51
2021/08/08 04:16:05;;;;;;;3.25;2.17;;;;;;;18.65;82.73;98934.97;5079090;28;20113;-50
2021/08/08 04:18:31;;;;;;;3.00;2.03;;;;;;;18.70;82.24;98934.63;5078728;28;20043;-50
2021/08/08 04:20:57;;;;;;;2.08;1.90;;;;;;;18.75;82.28;98945.78;5094893;28;20040;-51
2021/08/08 04:23:24;;;;;;;3.75;2.13;;;;;;;18.83;81.87;98954.03;5094687;28;20427;-50
2021/08/08 04:25:51;;;;;;;2.00;1.70;;;;;;;18.87;81.78;98944.88;5095469;28;20052;-51
2021/08/08 04:28:16;;;;;;;2.75;1.63;;;;;;;18.92;81.33;98948.06;5111622;28;20036;-50
2021/08/08 04:30:42;;;;;;;2.13;1.75;;;;;;;18.92;81.22;98947.22;5077898;28;20109;-51
2021/08/08 04:33:08;;;;;;;6.13;3.45;;;;;;;18.97;80.77;98945.06;5094661;28;20439;-50
2021/08/08 04:35:34;;;;;;;14.45;6.95;;;;;;;18.99;81.01;98952.91;5077833;28;20106;-51
2021/08/08 04:38:01;;;;;;;6.70;3.78;;;;;;;19.03;80.35;98944.59;5076825;28;20055;-50
2021/08/08 04:40:28;;;;;;;5.13;2.85;;;;;;;19.04;80.58;98971.97;5077341;28;20044;-51
2021/08/08 04:42:54;;;;;;;2.45;2.10;;;;;;;19.02;79.91;98979.22;5077979;28;20040;-51
2021/08/08 04:45:23;;;;;;;2.08;1.60;;;;;;;18.98;80.24;98989.22;5078183;28;20131;-51
2021/08/08 04:47:49;;;;;;;2.63;1.90;;;;;;;18.94;80.53;99002.81;5094388;28;20052;-51
2021/08/08 04:50:15;;;;;;;4.85;2.20;;;;;;;18.88;80.43;98998.78;5094406;28;20072;-51
2021/08/08 04:52:41;;;;;;;2.30;1.77;;;;;;;18.85;80.77;99010.47;5077495;28;20363;-50
2021/08/08 04:55:09;;;;;;;3.75;1.90;;;;;;;18.84;80.40;99002.63;5078632;28;20113;-51
2021/08/08 04:57:35;;;;;;;3.33;2.28;;;;;;;18.84;80.37;99008.75;5077462;28;20139;-51
2021/08/08 05:00:00;;;;;;;1.77;1.60;;;;;;;18.87;80.57;99021.81;5078282;28;20048;-51
2021/08/08 05:02:26;;;;;;;2.97;1.67;;;;;;;18.88;80.50;99030.63;5078537;28;20350;-51
2021/08/08 05:04:52;;;;;;;2.00;1.60;;;;;;;18.85;80.74;99033.50;5078173;28;20049;-51
2021/08/08 05:07:18;;;;;;;2.20;1.25;;;;;;;18.84;80.94;99047.72;5093801;28;20409;-50
2021/08/08 05:09:44;;;;;;;3.50;1.67;;;;;;;18.81;81.33;99048.78;5077769;28;20048;-50
2021/08/08 05:12:10;;;;;;;2.30;1.67;;;;;;;18.83;81.17;99049.53;5093994;28;20052;-51
2021/08/08 05:14:39;;;;;;;2.95;1.20;;;;;;;18.83;81.22;99044.22;5093636;28;20057;-50
2021/08/08 05:17:06;;;;;;;2.58;1.15;;;;;;;18.86;81.53;99061.72;5093651;28;20098;-50
2021/08/08 05:19:32;;;;;;;2.70;1.38;;;;;;;18.85;81.45;99060.88;5076627;28;20048;-50
2021/08/08 05:21:58;;;;;;;2.88;1.75;;;;;;;18.82;81.55;99055.78;5093370;28;20136;-51
2021/08/08 05:24:25;;;;;;;1.52;1.00;;;;;;;18.83;81.59;99073.41;5076912;28;20052;-51
2021/08/08 05:26:51;;;;;;;2.90;1.00;;;;;;;18.82;82.14;99082.31;5077501;28;20445;-51
2021/08/08 05:29:16;;;;;;;2.10;1.25;;;;;;;18.88;81.95;99091.63;5076570;28;20105;-50
2021/08/08 05:31:42;;;;;;;1.88;0.68;;;;;;;18.95;81.87;99092.03;5110578;28;20113;-51
2021/08/08 05:34:08;;;;;;;1.50;0.93;;;;;;;18.96;82.15;99105.22;5093468;28;20434;-50
2021/08/08 05:36:34;;;;;;;1.75;1.10;;;;;;;18.99;82.10;99114.78;5076671;28;20090;-51
2021/08/08 05:39:01;;;;;;;1.30;0.95;;;;;;;18.96;82.59;99123.78;5093278;28;20045;-50
2021/08/08 05:41:28;;;;;;;1.90;1.35;;;;;;;18.98;82.59;99132.50;5110101;28;20048;-51
2021/08/08 05:43:54;;;;;;;3.10;1.35;;;;;;;19.01;82.38;99128.75;5077470;28;20102;-50
2021/08/08 05:46:20;;;;;;;2.90;1.20;;;;;;;18.98;82.36;99147.56;5077326;28;20052;-50
2021/08/08 05:48:45;;;;;;;1.42;1.10;;;;;;;18.96;82.26;99149.47;5076300;28;20075;-51
2021/08/08 05:51:12;;;;;;;1.23;1.13;;;;;;;18.97;82.24;99146.72;5076276;28;20427;-51
2021/08/08 05:53:38;;;;;;;4.05;1.15;;;;;;;19.01;82.09;99139.38;5093138;28;20048;-51
2021/08/08 05:56:04;;;;;;;4.65;1.25;;;;;;;19.10;82.19;99147.53;5092812;28;20127;-51
2021/08/08 05:58:33;;;;;;;3.13;1.40;;;;;;;19.18;82.36;99152.31;5075998;28;20052;-52
2021/08/08 06:00:59;;;;;;;1.33;1.23;;;;;;;19.24;81.92;99151.91;5092643;28;20496;-50
2021/08/08 06:03:25;;;;;;;2.85;1.60;;;;;;;19.15;81.53;99134.81;5092950;28;20052;-51
2021/08/08 06:05:51;;;;;;;1.83;1.40;;;;;;;19.31;81.42;99150.50;5092979;28;20071;-51
2021/08/08 06:08:17;;;;;;;3.50;1.52;;;;;;;19.30;80.98;99163.84;5092675;28;20123;-50
2021/08/08 06:10:43;;;;;;;2.95;1.20;;;;;;;19.30;81.12;99164.72;5092867;28;20056;-51
2021/08/08 06:13:13;;;;;;;2.42;1.83;;;;;;;19.26;80.62;99152.63;5075635;28;20406;-50
2021/08/08 06:15:40;;;;;;;1.67;1.23;;;;;;;19.30;80.79;99154.13;5093098;28;20044;-51
2021/08/08 06:18:06;;;;;;;1.80;1.20;;;;;;;19.33;80.48;99143.25;5075569;28;20090;-50
2021/08/08 06:20:32;;;;;;;2.00;1.20;;;;;;;19.33;80.35;99140.59;5092382;28;20094;-51
2021/08/08 06:22:59;;;;;;;2.53;1.25;;;;;;;19.35;79.81;99140.50;5059447;28;20044;-53
2021/08/08 06:25:24;;;;;;;1.50;1.30;;;;;;;19.43;79.87;99140.78;5075438;28;20071;-54
2021/08/08 06:27:50;;;;;;;1.83;1.50;;;;;;;19.49;80.10;99136.84;5092248;28;20044;-54
2021/08/08 06:30:17;;;;;;;3.47;1.20;;;;;;;19.58;79.55;99133.53;5092547;28;20106;-54
2021/08/08 06:32:44;;;;;;;1.35;1.20;;;;;;;19.61;79.70;99141.28;5043109;28;20074;-54
2021/08/08 06:35:10;;;;;;;3.58;1.20;;;;;;;19.75;79.70;99142.94;5109481;28;20339;-54
2021/08/08 06:37:40;;;;;;;1.40;1.00;;;;;;;19.80;79.52;99139.00;5092364;28;20105;-54
2021/08/08 06:40:07;;;;;;;2.13;1.45;;;;;;;19.91;79.37;99147.97;5109061;28;20144;-54
2021/08/08 06:42:33;;;;;;;1.92;1.40;;;;;;;19.98;79.11;99150.06;5042184;28;20072;-54
2021/08/08 06:44:59;;;;;;;1.80;1.13;;;;;;;20.04;78.85;99151.41;5076102;28;20040;-54
2021/08/08 06:47:25;;;;;;;1.38;1.20;;;;;;;20.08;78.59;99151.09;5076011;28;20045;-54
2021/08/08 06:49:50;;;;;;;2.30;1.60;;;;;;;20.07;77.80;99151.19;5075638;28;20044;-54
2021/08/08 06:52:16;;;;;;;2.22;1.10;;;;;;;20.08;77.71;99158.19;5092501;28;20444;-54
2021/08/08 06:54:42;;;;;;;1.17;1.00;;;;;;;20.17;77.84;99173.47;5108803;28;20434;-54
2021/08/08 06:57:09;;;;;;;2.65;1.25;;;;;;;20.24;77.24;99179.16;5091992;28;20047;-54
2021/08/08 06:59:41;;;;;;;2.90;1.45;;;;;;;20.35;77.25;99179.22;5075879;28;20394;-54
2021/08/08 07:02:07;;;;;;;2.15;1.00;;;;;;;20.41;77.51;99170.78;5091635;28;20136;-54
2021/08/08 07:04:33;;;;;;;1.10;0.90;;;;;;;20.47;76.18;99166.81;5091883;28;20060;-54
2021/08/08 07:06:59;;;;;;;2.03;1.23;;;;;;;20.47;76.12;99167.69;5092102;28;20059;-54
2021/08/08 07:09:25;;;;;;;3.38;1.02;;;;;;;20.57;75.54;99172.28;5075922;28;20124;-51
2021/08/08 07:11:52;;;;;;;1.95;1.33;;;;;;;20.62;75.79;99180.78;5075238;28;20065;-51
2021/08/08 07:14:33;;;;;;;1.60;1.17;;;;;;;20.60;75.05;99172.91;5075297;28;20052;-51
2021/08/08 07:17:00;;;;;;;1.52;1.00;;;;;;;20.63;74.80;99171.84;5108667;28;20362;-51
2021/08/08 07:19:26;;;;;;;2.65;0.98;;;;;;;20.57;74.50;99173.13;5091886;28;20049;-51
2021/08/08 07:21:52;;;;;;;0.98;0.70;;;;;;;20.59;74.81;99173.88;5076055;28;20446;-51
2021/08/08 07:24:19;;;;;;;1.30;1.00;;;;;;;20.59;74.58;99184.53;5075769;28;20052;-51
2021/08/08 07:26:46;;;;;;;1.58;0.98;;;;;;;20.59;74.71;99191.66;5058246;28;20070;-51
2021/08/08 07:29:12;;;;;;;1.73;0.93;;;;;;;20.54;74.82;99190.22;5075941;28;20045;-51
2021/08/08 07:31:38;;;;;;;2.00;1.02;;;;;;;20.52;74.87;99196.59;5091794;28;20048;-51
2021/08/08 07:34:04;;;;;;;2.65;0.90;;;;;;;20.56;75.19;99206.03;5058489;28;20132;-51
2021/08/08 07:36:30;;;;;;;1.77;1.20;;;;;;;20.59;75.15;99197.81;5109261;28;20048;-51
2021/08/08 07:38:56;;;;;;;1.88;0.80;;;;;;;20.64;74.28;99190.34;5091653;28;20053;-51
2021/08/08 07:41:22;;;;;;;1.23;0.70;;;;;;;20.75;74.78;99193.03;5058339;28;20059;-51
2021/08/08 07:43:48;;;;;;;2.08;1.02;;;;;;;20.86;73.97;99196.66;5075682;28;20105;-51
2021/08/08 07:46:14;;;;;;;1.63;0.80;;;;;;;20.91;74.03;99194.50;5091507;28;20045;-51
2021/08/08 07:48:40;;;;;;;0.60;0.60;;;;;;;21.01;73.85;99187.50;5075773;28;20435;-50
2021/08/08 07:51:06;;;;;;;2.05;0.90;;;;;;;21.18;73.63;99196.84;5075468;28;20130;-51
2021/08/08 07:53:33;;;;;;;1.35;0.85;;;;;;;21.26;72.67;99173.13;5074603;28;20048;-51
2021/08/08 07:55:59;;;;;;;1.60;1.00;;;;;;;21.35;72.73;99167.09;5091727;28;20049;-50
2021/08/08 07:58:25;;;;;;;1.85;1.02;;;;;;;21.53;72.94;99172.75;5075654;28;20409;-51
2021/08/08 08:00:51;;;;;;;14.68;1.20;;;;;;;21.66;72.26;99172.63;5074272;28;20086;-54
2021/08/08 08:03:17;;;;;;;2.22;1.10;;;;;;;21.89;72.28;99170.75;5091281;28;20335;-55
2021/08/08 08:05:43;;;;;;;1.67;0.80;;;;;;;22.10;72.06;99186.81;5075556;28;20076;-55
2021/08/08 08:08:09;;;;;;;0.90;0.70;;;;;;;22.25;70.49;99200.72;5074725;28;20037;-55
2021/08/08 08:10:35;;;;;;;1.50;0.85;;;;;;;22.20;69.38;99219.78;5074355;28;20401;-55
2021/08/08 08:13:01;;;;;;;2.35;0.88;;;;;;;22.05;68.77;99231.66;5076210;28;20041;-55
2021/08/08 08:15:28;;;;;;;1.35;0.90;;;;;;;22.02;69.48;99219.41;5095164;28;20056;-55
2021/08/08 08:17:57;;;;;;;1.05;0.63;;;;;;;22.19;69.08;99222.56;5077902;28;20131;-55
2021/08/08 08:20:23;;;;;;;2.15;1.02;;;;;;;22.24;69.29;99233.69;5078919;28;20045;-55
2021/08/08 08:22:49;;;;;;;1.27;0.95;;;;;;;22.31;68.75;99237.56;5077891;28;20113;-55
2021/08/08 08:25:15;;;;;;;1.98;0.85;;;;;;;22.37;68.10;99248.56;5078607;28;20075;-55
2021/08/08 08:27:41;;;;;;;2.38;0.85;;;;;;;22.36;67.72;99249.53;5078882;28;20048;-55
2021/08/08 08:30:08;;;;;;;0.70;0.70;;;;;;;22.32;67.44;99239.22;5045019;28;20041;-55
2021/08/08 08:32:34;;;;;;;1.30;0.85;;;;;;;22.26;67.53;99245.94;5078809;28;20067;-55
2021/08/08 08:35:01;;;;;;;0.95;0.73;;;;;;;22.21;67.04;99256.13;5094674;28;20052;-55
2021/08/08 08:37:28;;;;;;;2.95;0.80;;;;;;;22.11;66.93;99256.00;5078728;28;20040;-55
2021/08/08 08:39:53;;;;;;;1.50;1.00;;;;;;;22.04;66.51;99246.81;5060891;28;20045;-55
2021/08/08 08:42:19;;;;;;;1.52;0.70;;;;;;;22.01;66.59;99246.22;5078318;28;20128;-54
2021/08/08 08:44:45;;;;;;;0.75;0.55;;;;;;;22.14;66.51;99247.75;5077576;28;20044;-55
2021/08/08 08:47:13;;;;;;;3.05;1.00;;;;;;;22.28;66.43;99243.97;5077671;28;20048;-54
2021/08/08 08:49:44;;;;;;;1.23;0.52;;;;;;;22.33;64.47;99246.28;5077650;28;20060;-55
2021/08/08 08:52:10;;;;;;;2.10;0.77;;;;;;;22.39;64.78;99251.09;5077618;28;20137;-55
2021/08/08 08:54:36;;;;;;;1.30;1.00;;;;;;;22.54;65.32;99259.66;5077364;28;20442;-55
2021/08/08 08:57:03;;;;;;;0.88;0.70;;;;;;;22.67;64.17;99273.66;5077333;28;20036;-55
2021/08/08 08:59:29;;;;;;;0.93;0.55;;;;;;;22.82;64.10;99280.41;5094138;28;20455;-55
2021/08/08 09:01:56;;;;;;;4.30;1.00;;;;;;;22.91;63.57;99288.59;5044686;28;20064;-55
2021/08/08 09:04:22;;;;;;;1.85;0.88;;;;;;;23.20;63.49;99294.16;5077966;28;20119;-55
2021/08/08 09:06:48;;;;;;;1.35;0.60;;;;;;;23.55;64.10;99291.13;5094141;28;20049;-55
2021/08/08 09:09:15;;;;;;;1.13;0.68;;;;;;;23.75;60.70;99289.41;5093865;28;20045;-56
2021/08/08 09:11:43;;;;;;;0.90;0.63;;;;;;;23.94;59.58;99286.81;5094002;28;20044;-56
2021/08/08 09:14:17;;;;;;;5.30;0.82;;;;;;;23.93;59.54;99293.13;5077092;28;20068;-56
2021/08/08 09:16:49;;;;;;;4.28;0.63;;;;;;;24.17;60.36;99286.56;5093732;28;20377;-55
2021/08/08 09:19:17;;;;;;;1.40;0.50;;;;;;;24.45;57.86;99287.66;5093850;28;20102;-56
2021/08/08 09:21:43;;;;;;;0.90;0.50;;;;;;;24.60;57.88;99291.63;5093811;28;20059;-56
2021/08/08 09:24:10;;;;;;;1.35;0.47;;;;;;;24.76;57.36;99284.81;5093131;28;20169;-56
2021/08/08 09:26:37;;;;;;;0.75;0.63;;;;;;;24.78;56.82;99283.72;5076903;28;20388;-56
2021/08/08 09:29:10;;;;;;;1.77;0.73;;;;;;;24.62;56.38;99283.44;5076514;28;20048;-56
2021/08/08 09:31:43;;;;;;;2.10;0.55;;;;;;;24.48;56.91;99290.06;5076792;28;20067;-56
2021/08/08 09:34:24;;;;;;;2.10;0.60;;;;;;;24.49;57.14;99302.44;5110595;28;20071;-55
2021/08/08 09:36:50;;;;;;;1.00;0.50;;;;;;;24.65;58.07;99296.53;5077251;28;20339;-55
2021/08/08 09:39:33;;;;;;;2.15;0.55;;;;;;;24.72;57.54;99303.00;5076444;28;20059;-55
2021/08/08 09:42:13;;;;;;;1.48;0.75;;;;;;;24.78;56.63;99306.97;5076830;28;20398;-55
2021/08/08 09:44:49;;;;;;;1.17;0.70;;;;;;;24.62;56.44;99302.16;5076583;28;20064;-55
2021/08/08 09:47:15;;;;;;;3.45;0.65;;;;;;;24.51;56.84;99303.16;5077630;28;20159;-56
2021/08/08 09:49:41;;;;;;;2.22;0.40;;;;;;;24.48;57.48;99314.13;5077098;28;20442;-56
2021/08/08 09:52:06;;;;;;;0.88;0.60;;;;;;;24.41;56.09;99316.53;5076153;28;20048;-55
2021/08/08 09:54:37;;;;;;;1.58;0.60;;;;;;;24.54;56.86;99315.41;5076920;28;20049;-55
2021/08/08 09:57:03;;;;;;;1.20;0.43;;;;;;;24.88;58.53;99314.00;5077149;28;20401;-55
2021/08/08 09:59:28;;;;;;;0.50;0.40;;;;;;;25.24;56.39;99314.28;5076554;28;20490;-56
2021/08/08 10:01:55;;;;;;;1.17;0.40;;;;;;;25.62;57.73;99307.97;5076738;28;20074;-55
2021/08/08 10:04:21;;;;;;;1.05;0.30;;;;;;;25.98;56.00;99302.75;5077061;28;20048;-55
2021/08/08 10:06:47;;;;;;;0.85;0.55;;;;;;;26.42;54.72;99296.69;5076087;28;20125;-56
2021/08/08 10:09:13;;;;;;;2.13;0.40;;;;;;;26.76;53.11;99304.97;5059406;28;20442;-56
2021/08/08 10:11:43;;;;;;;1.00;0.45;;;;;;;26.79;52.29;99308.19;5076594;28;20490;-56
2021/08/08 10:14:09;;;;;;;1.60;0.30;;;;;;;26.78;50.89;99311.03;5076004;28;20045;-56
2021/08/08 10:16:35;;;;;;;1.15;0.40;;;;;;;26.74;50.07;99320.38;5092520;28;20052;-56
2021/08/08 10:19:02;;;;;;;2.95;0.45;;;;;;;26.68;50.39;99324.53;5075575;28;20454;-56
2021/08/08 10:21:31;;;;;;;1.10;0.22;;;;;;;26.64;50.63;99306.19;5075839;28;20393;-56
2021/08/08 10:24:06;;;;;;;0.22;0.20;;;;;;;26.80;50.05;99306.34;5076668;28;20054;-56
2021/08/08 10:26:31;;;;;;;1.25;0.43;;;;;;;26.83;49.83;99327.53;5058895;28;20438;-56
2021/08/08 10:28:58;;;;;;;1.10;0.30;;;;;;;26.92;49.64;99337.34;5076339;28;20056;-56
2021/08/08 10:31:24;;;;;;;1.15;0.57;;;;;;;26.97;49.13;99335.03;5075490;28;20426;-56
2021/08/08 10:33:52;;;;;;;1.92;0.30;;;;;;;26.95;49.57;99328.97;5076556;28;20083;-56
2021/08/08 10:36:26;;;;;;;3.05;0.35;;;;;;;27.09;49.88;99327.56;5075732;28;20115;-56
2021/08/08 10:38:54;;;;;;;0.30;0.20;;;;;;;27.34;51.22;99333.19;5076519;28;20397;-56
2021/08/08 10:41:20;;;;;;;0.95;0.40;;;;;;;27.43;48.49;99340.28;5076676;28;20106;-57
2021/08/08 10:43:46;;;;;;;0.85;0.20;;;;;;;27.61;50.31;99346.44;5076184;28;20036;-57
2021/08/08 10:46:16;;;;;;;0.88;0.28;;;;;;;27.63;47.90;99344.47;5075567;28;20072;-57
2021/08/08 10:48:43;;;;;;;0.63;0.40;;;;;;;27.49;47.00;99359.34;5058987;28;20045;-56
2021/08/08 10:51:23;;;;;;;1.50;0.30;;;;;;;27.31;46.02;99358.53;5075458;28;20113;-56
2021/08/08 10:54:06;;;;;;;1.00;0.40;;;;;;;27.34;48.84;99358.22;5075545;28;20055;-57
2021/08/08 10:56:45;;;;;;;1.23;0.40;;;;;;;27.32;48.91;99345.91;5075461;28;20062;-57
2021/08/08 10:59:16;;;;;;;0.77;0.40;;;;;;;27.44;47.97;99353.56;5108906;28;20049;-57
2021/08/08 11:01:42;;;;;;;3.50;0.20;;;;;;;27.52;46.76;99347.41;5076227;28;20327;-57
2021/08/08 11:04:07;;;;;;;0.68;0.22;;;;;;;27.68;47.93;99349.34;5092197;28;20110;-57
2021/08/08 11:06:34;;;;;;;0.50;0.30;;;;;;;27.70;47.96;99340.13;5076173;28;20052;-56
2021/08/08 11:09:00;;;;;;;0.55;0.30;;;;;;;27.82;47.59;99343.44;5074961;28;20407;-57
2021/08/08 11:11:31;;;;;;;0.35;0.30;;;;;;;27.95;46.45;99346.53;5075247;28;20052;-57
2021/08/08 11:14:10;;;;;;;1.08;0.45;;;;;;;27.90;44.59;99339.94;5076141;28;20053;-57
2021/08/08 11:16:36;;;;;;;1.35;0.32;;;;;;;27.98;47.46;99344.50;5075110;28;20048;-57
2021/08/08 11:19:02;;;;;;;1.40;0.75;;;;;;;27.98;44.32;99347.19;5075690;28;20099;-57
2021/08/08 11:21:27;;;;;;;1.33;0.17;;;;;;;28.00;44.76;99353.25;5075789;28;20055;-57
2021/08/08 11:23:57;;;;;;;0.95;0.30;;;;;;;28.07;45.39;99349.75;5075980;28;20036;-57
2021/08/08 11:26:23;;;;;;;0.88;0.30;;;;;;;28.18;44.67;99354.84;5076027;28;20351;-58
2021/08/08 11:28:58;;;;;;;0.40;0.20;;;;;;;28.04;42.85;99354.63;5058227;28;20037;-58
2021/08/08 11:31:29;;;;;;;0.88;0.20;;;;;;;28.04;44.75;99354.63;5076014;28;20363;-57
2021/08/08 11:33:56;;;;;;;0.60;0.20;;;;;;;28.18;44.90;99364.78;5058763;28;20053;-57